Time;durP1;ratioP1;P1;durP2;ratioP2;P2;SDS_P1;SDS_P2;PMS_P1;PMS_P2;Temp;Humidity;BMP_temperature;BMP_pressure;BME280_temperature;BME280_humidity;BME280_pressure;Samples;Min_cycle;Max_cycle;Signal;HPM_P1;HPM_P2
2023/02/25 00:01:47;;;;;;;5.35;3.85;;;;;;;;;;5053183;28;20036;-57
2023/02/25 00:04:14;;;;;;;3.80;3.10;;;;;;;;;;5052852;28;20078;-54
2023/02/25 00:06:39;;;;;;;4.00;2.38;;;;;;;;;;5053697;28;20033;-56
2023/02/25 00:09:10;;;;;;;5.55;3.45;;;;;;;;;;5056466;28;20561;-53
2023/02/25 00:11:36;;;;;;;6.78;4.28;;;;;;;;;;5057949;28;20119;-55
2023/02/25 00:14:02;;;;;;;5.07;3.83;;;;;;;;;;5057054;28;20076;-53
2023/02/25 00:16:28;;;;;;;4.32;3.13;;;;;;;;;;5057120;28;20044;-55
2023/02/25 00:18:54;;;;;;;5.43;3.95;;;;;;;;;;5056658;28;20069;-57
2023/02/25 00:21:20;;;;;;;9.52;4.28;;;;;;;;;;5056883;28;20021;-54
2023/02/25 00:23:47;;;;;;;6.30;3.85;;;;;;;;;;5056718;28;20087;-53
2023/02/25 00:26:13;;;;;;;4.70;3.33;;;;;;;;;;5056753;28;20025;-51
2023/02/25 00:28:40;;;;;;;7.35;4.20;;;;;;;;;;5056554;28;20037;-54
2023/02/25 00:31:16;;;;;;;6.35;4.43;;;;;;;;;;5057066;28;20032;-52
2023/02/25 00:33:42;;;;;;;6.72;4.15;;;;;;;;;;5057139;28;20029;-55
2023/02/25 00:36:09;;;;;;;9.90;4.68;;;;;;;;;;5056829;28;20027;-50
2023/02/25 00:38:35;;;;;;;6.05;3.95;;;;;;;;;;5056309;28;20052;-57
2023/02/25 00:41:10;;;;;;;4.35;3.47;;;;;;;;;;5056661;28;20029;-54
2023/02/25 00:43:36;;;;;;;11.18;4.28;;;;;;;;;;5056601;28;20025;-54
2023/02/25 00:46:02;;;;;;;5.20;3.50;;;;;;;;;;5056414;28;20029;-58
2023/02/25 00:48:27;;;;;;;10.55;6.13;;;;;;;;;;5056274;28;20086;-54
2023/02/25 00:50:53;;;;;;;6.45;4.63;;;;;;;;;;5054883;28;20025;-55
2023/02/25 00:53:19;;;;;;;5.10;3.90;;;;;;;;;;5056129;28;20025;-57
2023/02/25 00:55:45;;;;;;;5.80;4.07;;;;;;;;;;5056751;28;20075;-55
2023/02/25 00:58:11;;;;;;;4.78;3.78;;;;;;;;;;5055916;28;20024;-55
2023/02/25 01:00:37;;;;;;;7.25;5.75;;;;;;;;;;5056249;28;20033;-53
2023/02/25 01:03:03;;;;;;;7.72;4.72;;;;;;;;;;5056056;28;20025;-55
2023/02/25 01:05:29;;;;;;;10.90;5.72;;;;;;;;;;5056632;28;20035;-53
2023/02/25 01:07:55;;;;;;;5.63;4.13;;;;;;;;;;5055468;28;20387;-51
2023/02/25 01:10:21;;;;;;;7.45;4.35;;;;;;;;;;5055914;28;20374;-54
2023/02/25 01:12:47;;;;;;;4.93;4.30;;;;;;;;;;5055825;28;20033;-56
2023/02/25 01:15:13;;;;;;;4.55;3.75;;;;;;;;;;5056599;28;20082;-52
2023/02/25 01:17:39;;;;;;;7.50;5.18;;;;;;;;;;5055789;28;20028;-57
2023/02/25 01:20:11;;;;;;;6.13;4.10;;;;;;;;;;5054959;28;20037;-56
2023/02/25 01:22:40;;;;;;;5.97;3.83;;;;;;;;;;5056440;28;20021;-51
2023/02/25 01:25:06;;;;;;;5.70;4.82;;;;;;;;;;5056181;28;20048;-53
2023/02/25 01:27:32;;;;;;;7.47;4.80;;;;;;;;;;5055516;28;20032;-54
2023/02/25 01:29:58;;;;;;;6.32;4.55;;;;;;;;;;5055261;28;20104;-55
2023/02/25 01:32:24;;;;;;;6.63;5.57;;;;;;;;;;5055212;28;20021;-52
2023/02/25 01:34:50;;;;;;;4.65;3.83;;;;;;;;;;5056024;28;20129;-51
2023/02/25 01:37:16;;;;;;;4.68;3.50;;;;;;;;;;5055686;28;20025;-53
2023/02/25 01:39:42;;;;;;;5.55;3.90;;;;;;;;;;5055463;28;20033;-51
2023/02/25 01:42:13;;;;;;;6.97;4.35;;;;;;;;;;5055219;28;20032;-54
2023/02/25 01:44:59;;;;;;;6.95;3.65;;;;;;;;;;5055835;28;20032;-53
2023/02/25 01:47:26;;;;;;;4.93;3.53;;;;;;;;;;5055219;28;20021;-52
2023/02/25 01:49:51;;;;;;;7.93;3.60;;;;;;;;;;5055113;28;20375;-55
2023/02/25 01:52:22;;;;;;;4.60;3.22;;;;;;;;;;5055348;28;20028;-54
2023/02/25 01:54:48;;;;;;;;;;;;;;;;;;5055541;28;20033;-51
2023/02/25 01:57:16;;;;;;;3.38;2.55;;;;;;;;;;5054921;28;19904;-54
2023/02/25 01:59:42;;;;;;;5.78;3.53;;;;;;;;;;5055088;28;20374;-55
2023/02/25 02:02:09;;;;;;;3.40;2.53;;;;;;;;;;5055394;28;20025;-55
2023/02/25 02:04:36;;;;;;;3.03;2.45;;;;;;;;;;5055086;28;20021;-53
2023/02/25 02:07:03;;;;;;;4.50;2.97;;;;;;;;;;5054837;28;20029;-57
2023/02/25 02:09:29;;;;;;;3.83;2.58;;;;;;;;;;5054749;28;20037;-55
2023/02/25 02:11:59;;;;;;;6.57;3.05;;;;;;;;;;5054712;28;20033;-58
2023/02/25 02:14:27;;;;;;;3.30;2.55;;;;;;;;;;5055133;28;20052;-57
2023/02/25 02:16:59;;;;;;;4.13;2.75;;;;;;;;;;5054371;28;20481;-57
2023/02/25 02:19:51;;;;;;;2.92;1.88;;;;;;;;;;5055363;28;20033;-57
2023/02/25 02:22:17;;;;;;;3.53;2.58;;;;;;;;;;5054163;28;20099;-55
2023/02/25 02:24:51;;;;;;;3.40;2.53;;;;;;;;;;5054826;28;20029;-55
2023/02/25 02:27:23;;;;;;;2.75;1.90;;;;;;;;;;5053644;28;20352;-55
2023/02/25 02:29:52;;;;;;;2.65;1.60;;;;;;;;;;5053753;28;20036;-55
2023/02/25 02:32:30;;;;;;;4.75;2.38;;;;;;;;;;5054571;28;20025;-56
2023/02/25 02:35:03;;;;;;;5.82;2.85;;;;;;;;;;5054642;28;20115;-54
2023/02/25 02:37:37;;;;;;;3.78;2.58;;;;;;;;;;5054839;28;20148;-55
2023/02/25 02:40:22;;;;;;;7.13;3.22;;;;;;;;;;5054785;28;20033;-57
2023/02/25 02:42:55;;;;;;;9.35;3.13;;;;;;;;;;5054437;28;20068;-57
2023/02/25 02:45:25;;;;;;;4.60;2.67;;;;;;;;;;5054217;28;20040;-57
2023/02/25 02:47:55;;;;;;;3.45;2.22;;;;;;;;;;5054188;28;20382;-56
2023/02/25 02:50:29;;;;;;;3.67;2.53;;;;;;;;;;5054306;28;20048;-55
2023/02/25 02:52:57;;;;;;;5.13;2.97;;;;;;;;;;5053919;28;20032;-52
2023/02/25 02:55:30;;;;;;;4.93;2.47;;;;;;;;;;5054321;28;20103;-57
2023/02/25 02:58:02;;;;;;;3.40;2.50;;;;;;;;;;5053969;28;20025;-57
2023/02/25 03:00:30;;;;;;;4.35;2.50;;;;;;;;;;5054437;28;20386;-56
2023/02/25 03:03:03;;;;;;;3.85;2.72;;;;;;;;;;5053604;28;20039;-55
2023/02/25 03:05:31;;;;;;;3.83;2.75;;;;;;;;;;5054199;28;20029;-54
2023/02/25 03:08:17;;;;;;;4.38;1.95;;;;;;;;;;5054098;28;20029;-55
2023/02/25 03:10:43;;;;;;;3.97;2.45;;;;;;;;;;5053889;28;20108;-57
2023/02/25 03:13:10;;;;;;;2.90;1.92;;;;;;;;;;5054291;28;20134;-56
2023/02/25 03:15:37;;;;;;;3.45;2.47;;;;;;;;;;5053697;28;20079;-54
2023/02/25 03:18:06;;;;;;;5.75;2.90;;;;;;;;;;5054182;28;20028;-53
2023/02/25 03:20:36;;;;;;;4.55;2.35;;;;;;;;;;5053396;28;20540;-57
2023/02/25 03:23:04;;;;;;;8.05;2.85;;;;;;;;;;5054187;28;20344;-55
2023/02/25 03:25:33;;;;;;;4.55;1.70;;;;;;;;;;5053707;28;20521;-54
2023/02/25 03:28:17;;;;;;;4.32;2.88;;;;;;;;;;5053539;28;20135;-55
2023/02/25 03:30:43;;;;;;;2.85;2.17;;;;;;;;;;5053651;28;20025;-56
2023/02/25 03:33:24;;;;;;;3.03;2.08;;;;;;;;;;5054034;28;20021;-54
2023/02/25 03:35:51;;;;;;;5.95;1.38;;;;;;;;;;5053776;28;20432;-54
2023/02/25 03:38:20;;;;;;;2.28;1.50;;;;;;;;;;5053143;28;20414;-56
2023/02/25 03:40:47;;;;;;;3.00;1.85;;;;;;;;;;5054001;28;20355;-53
2023/02/25 03:43:15;;;;;;;4.72;1.92;;;;;;;;;;5056435;28;20434;-57
2023/02/25 03:45:42;;;;;;;6.13;2.40;;;;;;;;;;5057826;28;20363;-57
2023/02/25 03:48:10;;;;;;;3.13;1.95;;;;;;;;;;5057407;28;20032;-57
2023/02/25 03:50:58;;;;;;;5.20;3.17;;;;;;;;;;5057378;28;20064;-52
2023/02/25 03:53:24;;;;;;;3.30;2.08;;;;;;;;;;5057208;28;20059;-53
2023/02/25 03:55:50;;;;;;;13.82;1.73;;;;;;;;;;5057613;28;20028;-51
2023/02/25 03:58:16;;;;;;;5.40;2.38;;;;;;;;;;5057296;28;20029;-55
2023/02/25 04:00:43;;;;;;;3.90;2.05;;;;;;;;;;5057262;28;20161;-55
2023/02/25 04:03:11;;;;;;;2.10;1.25;;;;;;;;;;5057145;28;20032;-55
2023/02/25 04:05:37;;;;;;;1.50;0.98;;;;;;;;;;5057766;28;20028;-56
2023/02/25 04:08:14;;;;;;;4.38;1.77;;;;;;;;;;5057136;28;20060;-56
2023/02/25 04:10:42;;;;;;;2.10;1.17;;;;;;;;;;5057596;28;20052;-54
2023/02/25 04:13:09;;;;;;;3.22;1.48;;;;;;;;;;5057099;28;20052;-55
2023/02/25 04:15:35;;;;;;;2.00;1.30;;;;;;;;;;5057348;28;20037;-56
2023/02/25 04:18:02;;;;;;;1.30;0.90;;;;;;;;;;5057150;28;20048;-53
2023/02/25 04:20:31;;;;;;;1.90;0.90;;;;;;;;;;5056949;28;20474;-54
2023/02/25 04:22:58;;;;;;;2.07;1.50;;;;;;;;;;5056845;28;20471;-55
2023/02/25 04:25:24;;;;;;;1.98;1.02;;;;;;;;;;5057592;28;20255;-52
2023/02/25 04:27:50;;;;;;;3.78;1.38;;;;;;;;;;5057236;28;20028;-53
2023/02/25 04:30:16;;;;;;;1.52;0.70;;;;;;;;;;5057202;28;20351;-51
2023/02/25 04:32:42;;;;;;;2.33;0.90;;;;;;;;;;5057227;28;20075;-55
2023/02/25 04:35:11;;;;;;;1.42;0.73;;;;;;;;;;5057504;28;20063;-56
2023/02/25 04:37:38;;;;;;;7.82;2.00;;;;;;;;;;5056486;28;20033;-54
2023/02/25 04:40:11;;;;;;;1.92;0.70;;;;;;;;;;5056164;28;20029;-53
2023/02/25 04:42:37;;;;;;;3.60;1.42;;;;;;;;;;5057363;28;20033;-52
2023/02/25 04:45:03;;;;;;;2.45;1.02;;;;;;;;;;5056824;28;20082;-55
2023/02/25 04:47:29;;;;;;;3.80;1.13;;;;;;;;;;5056428;28;20025;-54
2023/02/25 04:49:56;;;;;;;3.53;1.35;;;;;;;;;;5056877;28;20033;-56
2023/02/25 04:52:22;;;;;;;1.58;0.75;;;;;;;;;;5056350;28;20356;-54
2023/02/25 04:54:48;;;;;;;2.90;0.95;;;;;;;;;;5055658;28;20481;-55
2023/02/25 04:57:14;;;;;;;1.27;0.68;;;;;;;;;;5056285;28;20390;-57
2023/02/25 04:59:40;;;;;;;2.63;1.42;;;;;;;;;;5055376;28;20378;-57
2023/02/25 05:02:07;;;;;;;1.63;0.95;;;;;;;;;;5056608;28;20025;-54
2023/02/25 05:04:34;;;;;;;2.78;1.13;;;;;;;;;;5056102;28;20029;-56
2023/02/25 05:07:00;;;;;;;2.38;1.45;;;;;;;;;;5056325;28;20025;-56
2023/02/25 05:09:26;;;;;;;2.38;1.05;;;;;;;;;;5056202;28;20048;-55
2023/02/25 05:11:52;;;;;;;1.23;0.55;;;;;;;;;;5056287;28;20070;-57
2023/02/25 05:14:18;;;;;;;1.10;0.63;;;;;;;;;;5055943;28;20053;-55
2023/02/25 05:16:44;;;;;;;1.73;0.70;;;;;;;;;;5056181;28;20060;-57
2023/02/25 05:19:14;;;;;;;3.25;1.00;;;;;;;;;;5056029;28;20040;-54
2023/02/25 05:21:40;;;;;;;;;;;;;;;;;;5056414;28;20055;-55
2023/02/25 05:24:06;;;;;;;1.35;0.52;;;;;;;;;;5055756;28;20097;-57
2023/02/25 05:26:32;;;;;;;5.30;0.82;;;;;;;;;;5056297;28;20036;-57
2023/02/25 05:28:58;;;;;;;0.80;0.40;;;;;;;;;;5055641;28;20033;-57
2023/02/25 05:31:25;;;;;;;1.35;1.13;;;;;;;;;;5055929;28;20029;-55
2023/02/25 05:33:51;;;;;;;0.60;0.43;;;;;;;;;;5054349;28;20108;-56
2023/02/25 05:36:17;;;;;;;6.40;2.17;;;;;;;;;;5055869;28;20103;-53
2023/02/25 05:38:43;;;;;;;4.18;0.82;;;;;;;;;;5055933;28;20033;-57
2023/02/25 05:41:13;;;;;;;3.03;0.93;;;;;;;;;;5056221;28;20025;-56
2023/02/25 05:43:40;;;;;;;1.00;0.50;;;;;;;;;;5055787;28;20127;-57
2023/02/25 05:46:10;;;;;;;2.05;1.05;;;;;;;;;;5055938;28;20033;-57
2023/02/25 05:48:37;;;;;;;3.80;1.27;;;;;;;;;;5055774;28;20071;-57
2023/02/25 05:51:04;;;;;;;1.63;0.53;;;;;;;;;;5055614;28;20039;-55
2023/02/25 05:53:31;;;;;;;2.25;0.52;;;;;;;;;;5054871;28;20471;-55
2023/02/25 05:55:57;;;;;;;1.13;0.40;;;;;;;;;;5055506;28;20029;-56
2023/02/25 05:58:23;;;;;;;3.80;1.33;;;;;;;;;;5054686;28;20086;-55
2023/02/25 06:00:49;;;;;;;2.43;0.93;;;;;;;;;;5055310;28;20416;-57
2023/02/25 06:03:15;;;;;;;1.75;1.63;;;;;;;;;;5055286;28;20095;-56
2023/02/25 06:05:41;;;;;;;0.87;0.37;;;;;;;;;;5054068;28;20024;-56
2023/02/25 06:08:08;;;;;;;0.73;0.47;;;;;;;;;;5054636;28;20028;-56
2023/02/25 06:10:37;;;;;;;0.95;0.63;;;;;;;;;;5054810;28;20383;-54
2023/02/25 06:13:03;;;;;;;1.60;0.90;;;;;;;;;;5054586;28;20098;-56
2023/02/25 06:15:29;;;;;;;1.75;0.75;;;;;;;;;;5054755;28;20025;-54
2023/02/25 06:17:55;;;;;;;0.85;0.57;;;;;;;;;;5054665;28;20026;-57
2023/02/25 06:20:24;;;;;;;0.80;0.52;;;;;;;;;;5054416;28;20029;-56
2023/02/25 06:22:50;;;;;;;0.55;0.22;;;;;;;;;;5055145;28;20051;-57
2023/02/25 06:25:16;;;;;;;1.47;0.53;;;;;;;;;;5054563;28;20021;-55
2023/02/25 06:27:42;;;;;;;4.75;0.47;;;;;;;;;;5054801;28;20027;-56
2023/02/25 06:30:08;;;;;;;2.15;0.90;;;;;;;;;;5054669;28;20073;-56
2023/02/25 06:32:34;;;;;;;0.57;0.30;;;;;;;;;;5054063;28;20467;-57
2023/02/25 06:35:00;;;;;;;1.42;0.52;;;;;;;;;;5054738;28;20100;-57
2023/02/25 06:37:26;;;;;;;0.85;0.35;;;;;;;;;;5054332;28;20028;-53
2023/02/25 06:39:52;;;;;;;2.45;0.80;;;;;;;;;;5054142;28;20496;-57
2023/02/25 06:42:18;;;;;;;0.45;0.40;;;;;;;;;;5054199;28;20059;-57
2023/02/25 06:44:44;;;;;;;0.70;0.28;;;;;;;;;;5054275;28;20056;-57
2023/02/25 06:47:10;;;;;;;3.08;0.85;;;;;;;;;;5054653;28;20021;-56
2023/02/25 06:49:36;;;;;;;1.60;0.75;;;;;;;;;;5054117;28;20087;-57
2023/02/25 06:52:02;;;;;;;2.40;0.75;;;;;;;;;;5054381;28;20031;-57
2023/02/25 06:54:28;;;;;;;0.90;0.40;;;;;;;;;;5054384;28;20362;-57
2023/02/25 06:56:54;;;;;;;0.93;0.55;;;;;;;;;;5054850;28;20040;-55
2023/02/25 06:59:20;;;;;;;0.63;0.32;;;;;;;;;;5053912;28;20033;-55
2023/02/25 07:01:46;;;;;;;3.10;0.93;;;;;;;;;;5054002;28;20033;-57
2023/02/25 07:04:16;;;;;;;1.02;0.68;;;;;;;;;;5053698;28;20032;-56
2023/02/25 07:06:42;;;;;;;1.38;0.88;;;;;;;;;;5054185;28;20033;-52
2023/02/25 07:09:08;;;;;;;0.15;0.15;;;;;;;;;;5053579;28;20027;-54
2023/02/25 07:11:35;;;;;;;9.85;1.77;;;;;;;;;;5053835;28;20025;-57
2023/02/25 07:14:02;;;;;;;6.40;1.50;;;;;;;;;;5053822;28;20044;-55
2023/02/25 07:16:28;;;;;;;5.00;1.27;;;;;;;;;;5053908;28;20029;-55
2023/02/25 07:18:55;;;;;;;1.45;0.63;;;;;;;;;;5053498;28;20435;-54
2023/02/25 07:21:21;;;;;;;2.23;0.53;;;;;;;;;;5053833;28;20029;-55
2023/02/25 07:23:47;;;;;;;1.95;0.75;;;;;;;;;;5053404;28;20032;-56
2023/02/25 07:26:14;;;;;;;8.18;1.52;;;;;;;;;;5053250;28;20025;-56
2023/02/25 07:28:41;;;;;;;2.00;1.20;;;;;;;;;;5053531;28;20033;-52
2023/02/25 07:31:11;;;;;;;4.25;1.73;;;;;;;;;;5054281;28;20030;-57
2023/02/25 07:33:37;;;;;;;1.52;1.10;;;;;;;;;;5053609;28;20037;-55
2023/02/25 07:36:04;;;;;;;1.55;0.80;;;;;;;;;;5054141;28;20075;-53
2023/02/25 07:38:29;;;;;;;0.47;0.20;;;;;;;;;;5053258;28;20036;-57
2023/02/25 07:40:55;;;;;;;4.10;0.88;;;;;;;;;;5053558;28;20412;-55
2023/02/25 07:43:21;;;;;;;2.80;0.93;;;;;;;;;;5053806;28;20025;-54
2023/02/25 07:45:50;;;;;;;2.88;0.80;;;;;;;;;;5054015;28;20025;-55
2023/02/25 07:48:16;;;;;;;1.60;0.50;;;;;;;;;;5053387;28;20029;-57
2023/02/25 07:50:43;;;;;;;3.40;1.00;;;;;;;;;;5053440;28;20128;-54
2023/02/25 07:53:09;;;;;;;0.70;0.40;;;;;;;;;;5053404;28;20517;-49
2023/02/25 07:55:35;;;;;;;1.55;0.60;;;;;;;;;;5054052;28;20060;-56
2023/02/25 07:58:01;;;;;;;4.72;0.65;;;;;;;;;;5053185;28;20036;-54
2023/02/25 08:00:27;;;;;;;1.95;0.52;;;;;;;;;;5053347;28;20033;-51
2023/02/25 08:02:53;;;;;;;4.10;0.85;;;;;;;;;;5053928;28;20355;-52
2023/02/25 08:05:21;;;;;;;1.73;0.50;;;;;;;;;;5053348;28;20025;-53
2023/02/25 08:07:47;;;;;;;0.57;0.40;;;;;;;;;;5053222;28;20095;-52
2023/02/25 08:10:13;;;;;;;0.63;0.30;;;;;;;;;;5053312;28;20025;-52
2023/02/25 08:12:39;;;;;;;1.00;0.68;;;;;;;;;;5053091;28;20025;-55
2023/02/25 08:15:05;;;;;;;2.15;0.80;;;;;;;;;;5054133;28;20048;-55
2023/02/25 08:17:33;;;;;;;0.52;0.28;;;;;;;;;;5052955;28;20025;-50
2023/02/25 08:19:59;;;;;;;2.50;0.63;;;;;;;;;;5053035;28;20040;-54
2023/02/25 08:22:25;;;;;;;0.90;0.40;;;;;;;;;;5053182;28;20025;-51
2023/02/25 08:24:51;;;;;;;2.78;0.55;;;;;;;;;;5053680;28;20031;-49
2023/02/25 08:27:17;;;;;;;1.33;0.73;;;;;;;;;;5052947;28;20025;-53
2023/02/25 08:29:43;;;;;;;4.32;0.20;;;;;;;;;;5056093;28;20031;-50
2023/02/25 08:32:09;;;;;;;0.60;0.32;;;;;;;;;;5056678;28;20430;-56
2023/02/25 08:34:35;;;;;;;2.10;0.90;;;;;;;;;;5056720;28;20411;-49
2023/02/25 08:37:01;;;;;;;1.20;0.60;;;;;;;;;;5056547;28;20121;-53
2023/02/25 08:39:28;;;;;;;1.08;0.55;;;;;;;;;;5056143;28;20116;-53
2023/02/25 08:41:54;;;;;;;6.57;1.00;;;;;;;;;;5056476;28;20040;-52
2023/02/25 08:44:20;;;;;;;2.22;0.65;;;;;;;;;;5056460;28;20107;-54
2023/02/25 08:46:46;;;;;;;2.40;0.80;;;;;;;;;;5056439;28;20032;-50
2023/02/25 08:49:12;;;;;;;0.63;0.45;;;;;;;;;;5056248;28;20040;-55
2023/02/25 08:51:39;;;;;;;2.10;0.63;;;;;;;;;;5057094;28;20028;-55
2023/02/25 08:54:06;;;;;;;8.50;1.25;;;;;;;;;;5056231;28;20036;-54
2023/02/25 08:56:34;;;;;;;0.73;0.43;;;;;;;;;;5056028;28;20049;-53
2023/02/25 08:59:00;;;;;;;1.83;0.63;;;;;;;;;;5056084;28;20095;-52
2023/02/25 09:01:39;;;;;;;1.42;0.93;;;;;;;;;;5056569;28;20021;-55
2023/02/25 09:04:05;;;;;;;1.90;0.85;;;;;;;;;;5055990;28;20029;-55
2023/02/25 09:06:32;;;;;;;0.93;0.47;;;;;;;;;;5056444;28;20061;-54
2023/02/25 09:08:58;;;;;;;3.63;0.45;;;;;;;;;;5055830;28;20070;-54
2023/02/25 09:11:25;;;;;;;0.35;0.32;;;;;;;;;;5056179;28;20056;-53
2023/02/25 09:13:52;;;;;;;1.13;0.45;;;;;;;;;;5055418;28;20052;-55
2023/02/25 09:16:18;;;;;;;1.85;0.68;;;;;;;;;;5055796;28;20094;-56
2023/02/25 09:18:45;;;;;;;0.80;0.40;;;;;;;;;;5055636;28;20029;-53
2023/02/25 09:21:12;;;;;;;1.65;0.77;;;;;;;;;;5055580;28;20074;-52
2023/02/25 09:23:38;;;;;;;2.33;0.47;;;;;;;;;;5055541;28;20025;-54
2023/02/25 09:26:04;;;;;;;0.52;0.30;;;;;;;;;;5055978;28;20036;-55
2023/02/25 09:28:30;;;;;;;2.28;0.70;;;;;;;;;;5055506;28;20033;-53
2023/02/25 09:30:57;;;;;;;6.50;1.15;;;;;;;;;;5055462;28;20032;-53
2023/02/25 09:33:23;;;;;;;2.65;0.65;;;;;;;;;;5055328;28;20033;-49
2023/02/25 09:35:49;;;;;;;1.08;0.50;;;;;;;;;;5056075;28;20032;-52
2023/02/25 09:38:16;;;;;;;2.15;0.50;;;;;;;;;;5055394;28;20029;-54
2023/02/25 09:40:45;;;;;;;1.13;0.65;;;;;;;;;;5055156;28;20029;-52
2023/02/25 09:43:35;;;;;;;1.33;0.60;;;;;;;;;;5055044;28;20106;-53
2023/02/25 09:46:19;;;;;;;1.77;0.55;;;;;;;;;;5055983;28;20075;-55
2023/02/25 09:49:09;;;;;;;3.80;0.90;;;;;;;;;;5055548;28;20104;-57
2023/02/25 09:51:43;;;;;;;2.85;0.75;;;;;;;;;;5051958;28;20114;-56
2023/02/25 09:54:12;;;;;;;0.43;0.22;;;;;;;;;;5055645;28;20036;-52
2023/02/25 09:56:38;;;;;;;1.52;0.93;;;;;;;;;;5055636;28;20159;-56
2023/02/25 09:59:08;;;;;;;1.13;0.30;;;;;;;;;;5054878;28;20064;-55
2023/02/25 10:01:39;;;;;;;1.45;0.73;;;;;;;;;;5055068;28;20111;-53
2023/02/25 10:04:10;;;;;;;1.20;0.70;;;;;;;;;;5054803;28;20036;-54
2023/02/25 10:06:42;;;;;;;1.73;0.20;;;;;;;;;;5054514;28;20083;-52
2023/02/25 10:09:23;;;;;;;3.10;1.02;;;;;;;;;;5054761;28;20462;-56
2023/02/25 10:11:53;;;;;;;0.00;0.00;;;;;;;;;;5054701;28;20028;-54
2023/02/25 10:14:28;;;;;;;0.82;0.28;;;;;;;;;;5054917;28;20040;-56
2023/02/25 10:17:01;;;;;;;0.00;0.00;;;;;;;;;;5054951;28;20370;-57
2023/02/25 10:19:47;;;;;;;0.52;0.30;;;;;;;;;;5055254;28;20033;-57
2023/02/25 10:22:31;;;;;;;0.47;0.20;;;;;;;;;;5054694;28;20039;-55
2023/02/25 10:25:00;;;;;;;0.82;0.17;;;;;;;;;;5054502;28;20474;-55
2023/02/25 10:27:32;;;;;;;0.55;0.10;;;;;;;;;;5054398;28;20056;-53
2023/02/25 10:30:05;;;;;;;0.93;0.25;;;;;;;;;;5054675;28;20033;-55
2023/02/25 10:32:33;;;;;;;0.93;0.45;;;;;;;;;;5054890;28;20060;-55
2023/02/25 10:35:00;;;;;;;0.55;0.22;;;;;;;;;;5054558;28;20029;-56
2023/02/25 10:37:30;;;;;;;2.17;0.47;;;;;;;;;;5054295;28;20035;-55
2023/02/25 10:39:58;;;;;;;0.30;0.13;;;;;;;;;;5054180;28;20037;-56
2023/02/25 10:42:25;;;;;;;1.45;0.25;;;;;;;;;;5054081;28;20116;-55
2023/02/25 10:44:51;;;;;;;0.80;0.30;;;;;;;;;;5054775;28;20020;-56
2023/02/25 10:47:31;;;;;;;2.15;0.25;;;;;;;;;;5054553;28;20074;-55
2023/02/25 10:50:16;;;;;;;5.50;4.95;;;;;;;;;;5054600;28;20037;-54
2023/02/25 10:52:53;;;;;;;4.28;2.47;;;;;;;;;;5053711;28;20083;-55
2023/02/25 10:55:37;;;;;;;1.67;0.95;;;;;;;;;;5054489;28;20375;-57
2023/02/25 10:58:03;;;;;;;0.50;0.20;;;;;;;;;;5053517;28;20380;-57
2023/02/25 11:00:31;;;;;;;0.60;0.28;;;;;;;;;;5054330;28;20037;-57
2023/02/25 11:03:00;;;;;;;0.80;0.40;;;;;;;;;;5054014;28;20025;-56
2023/02/25 11:05:35;;;;;;;0.47;0.20;;;;;;;;;;5054137;28;20029;-56
2023/02/25 11:08:01;;;;;;;1.52;0.75;;;;;;;;;;5053763;28;20115;-57
2023/02/25 11:10:27;;;;;;;4.75;0.65;;;;;;;;;;5053816;28;20032;-56
2023/02/25 11:12:54;;;;;;;0.65;0.20;;;;;;;;;;5053262;28;20542;-54
2023/02/25 11:15:37;;;;;;;0.98;0.43;;;;;;;;;;5053752;28;20028;-56
2023/02/25 11:18:06;;;;;;;2.35;0.47;;;;;;;;;;5053584;28;20035;-55
2023/02/25 11:20:32;;;;;;;1.88;0.63;;;;;;;;;;5053404;28;20032;-54
2023/02/25 11:22:58;;;;;;;1.65;0.45;;;;;;;;;;5053867;28;20135;-55
2023/02/25 11:25:33;;;;;;;0.30;0.20;;;;;;;;;;5053537;28;20020;-57
2023/02/25 11:28:00;;;;;;;1.20;0.17;;;;;;;;;;5053468;28;20032;-57
2023/02/25 11:30:33;;;;;;;0.73;0.22;;;;;;;;;;5054094;28;20037;-56
2023/02/25 11:33:02;;;;;;;1.00;0.50;;;;;;;;;;5053527;28;20025;-56
2023/02/25 11:35:30;;;;;;;0.65;0.35;;;;;;;;;;5053907;28;20062;-57
2023/02/25 11:37:57;;;;;;;0.88;0.22;;;;;;;;;;5053613;28;20029;-56
2023/02/25 11:40:23;;;;;;;1.77;0.70;;;;;;;;;;5054056;28;20040;-53
2023/02/25 11:43:01;;;;;;;0.43;0.10;;;;;;;;;;5053630;28;20420;-56
2023/02/25 11:45:29;;;;;;;0.55;0.20;;;;;;;;;;5053587;28;20413;-55
2023/02/25 11:47:56;;;;;;;1.10;0.52;;;;;;;;;;5053374;28;20027;-57
2023/02/25 11:50:33;;;;;;;0.35;0.28;;;;;;;;;;5053467;28;20033;-57
2023/02/25 11:53:13;;;;;;;0.55;0.20;;;;;;;;;;5053781;28;20412;-58
2023/02/25 11:55:58;;;;;;;1.35;0.30;;;;;;;;;;5053672;28;20071;-57
2023/02/25 11:58:30;;;;;;;0.80;0.40;;;;;;;;;;5053749;28;20062;-55
2023/02/25 12:01:03;;;;;;;0.85;0.60;;;;;;;;;;5054010;28;20120;-56
2023/02/25 12:03:38;;;;;;;1.38;0.70;;;;;;;;;;5054810;28;20032;-56
2023/02/25 12:06:11;;;;;;;0.95;0.57;;;;;;;;;;5057829;28;20107;-55
2023/02/25 12:08:50;;;;;;;5.75;0.70;;;;;;;;;;5057249;28;20032;-56
2023/02/25 12:11:27;;;;;;;2.40;0.88;;;;;;;;;;5057472;28;20039;-54
2023/02/25 12:14:03;;;;;;;1.13;0.43;;;;;;;;;;5057952;28;20045;-56
2023/02/25 12:16:51;;;;;;;1.65;0.65;;;;;;;;;;5057132;28;20025;-55
2023/02/25 12:19:22;;;;;;;4.32;0.68;;;;;;;;;;5057191;28;20415;-55
2023/02/25 12:22:11;;;;;;;0.80;0.40;;;;;;;;;;5056803;28;20033;-54
2023/02/25 12:24:37;;;;;;;0.93;0.50;;;;;;;;;;5056880;28;20095;-57
2023/02/25 12:27:06;;;;;;;2.38;0.55;;;;;;;;;;5056410;28;20100;-56
2023/02/25 12:29:41;;;;;;;1.63;0.50;;;;;;;;;;5057057;28;20041;-57
2023/02/25 12:32:26;;;;;;;9.35;0.93;;;;;;;;;;5056685;28;20104;-55
2023/02/25 12:35:05;;;;;;;4.47;0.95;;;;;;;;;;5057017;28;20032;-57
2023/02/25 12:37:31;;;;;;;1.70;0.52;;;;;;;;;;5056834;28;20022;-56
2023/02/25 12:40:09;;;;;;;3.47;0.70;;;;;;;;;;5057294;28;20032;-56
2023/02/25 12:42:38;;;;;;;1.00;0.50;;;;;;;;;;5056760;28;20025;-55
2023/02/25 12:45:23;;;;;;;0.85;0.40;;;;;;;;;;5056871;28;20033;-55
2023/02/25 12:48:04;;;;;;;0.95;0.40;;;;;;;;;;5056598;28;20364;-55
2023/02/25 12:50:30;;;;;;;;;;;;;;;;;;5056766;28;20119;-54
2023/02/25 12:52:58;;;;;;;1.30;0.50;;;;;;;;;;5056326;28;19908;-57
2023/02/25 12:55:37;;;;;;;2.08;0.60;;;;;;;;;;5056292;28;20074;-57
2023/02/25 12:58:09;;;;;;;1.27;0.80;;;;;;;;;;5056182;28;20450;-56
2023/02/25 13:00:47;;;;;;;2.50;1.35;;;;;;;;;;5056045;28;20456;-57
2023/02/25 13:03:32;;;;;;;1.05;0.52;;;;;;;;;;5056155;28;20455;-56
2023/02/25 13:06:17;;;;;;;1.48;0.60;;;;;;;;;;5056362;28;20028;-53
2023/02/25 13:08:58;;;;;;;1.38;0.82;;;;;;;;;;5056410;28;20036;-57
2023/02/25 13:11:32;;;;;;;1.20;0.68;;;;;;;;;;5055575;28;20032;-56
2023/02/25 13:14:17;;;;;;;0.85;0.60;;;;;;;;;;5055702;28;20477;-54
2023/02/25 13:17:09;;;;;;;1.52;0.47;;;;;;;;;;5055873;28;20029;-56
2023/02/25 13:19:58;;;;;;;6.55;1.35;;;;;;;;;;5054386;28;20037;-55
2023/02/25 13:22:43;;;;;;;1.70;0.68;;;;;;;;;;5056060;28;20562;-57
2023/02/25 13:25:18;;;;;;;3.85;1.00;;;;;;;;;;5055925;28;20021;-57
2023/02/25 13:28:03;;;;;;;1.55;0.85;;;;;;;;;;5055675;28;20036;-56
2023/02/25 13:30:36;;;;;;;1.23;0.75;;;;;;;;;;5055534;28;20044;-55
2023/02/25 13:33:28;;;;;;;2.35;1.20;;;;;;;;;;5055465;28;20021;-57
2023/02/25 13:36:12;;;;;;;0.90;0.73;;;;;;;;;;5056012;28;20028;-56
2023/02/25 13:38:38;;;;;;;2.55;0.68;;;;;;;;;;5055369;28;20032;-57
2023/02/25 13:41:14;;;;;;;2.13;1.20;;;;;;;;;;5055263;28;20036;-57
2023/02/25 13:44:00;;;;;;;1.88;0.95;;;;;;;;;;5055385;28;20463;-56
2023/02/25 13:46:41;;;;;;;1.73;0.70;;;;;;;;;;5055783;28;20075;-56
2023/02/25 13:49:26;;;;;;;1.58;0.88;;;;;;;;;;5055166;28;20075;-57
2023/02/25 13:52:06;;;;;;;3.45;1.92;;;;;;;;;;5055408;28;20031;-57
2023/02/25 13:54:34;;;;;;;0.60;0.25;;;;;;;;;;5055012;28;20061;-55
2023/02/25 13:57:09;;;;;;;2.97;1.05;;;;;;;;;;5055080;28;20104;-55
2023/02/25 13:59:54;;;;;;;0.50;0.30;;;;;;;;;;5054984;28;20032;-55
2023/02/25 14:02:20;;;;;;;3.13;1.90;;;;;;;;;;5054917;28;20052;-52
2023/02/25 14:04:59;;;;;;;2.28;0.90;;;;;;;;;;5054908;28;20029;-53
2023/02/25 14:07:44;;;;;;;5.28;1.10;;;;;;;;;;5055064;28;20033;-52
2023/02/25 14:10:21;;;;;;;2.03;0.90;;;;;;;;;;5054708;28;20025;-51
2023/02/25 14:12:59;;;;;;;0.80;0.40;;;;;;;;;;5055044;28;20029;-55
2023/02/25 14:15:31;;;;;;;0.65;0.30;;;;;;;;;;5054973;28;20143;-53
2023/02/25 14:17:57;;;;;;;1.75;0.63;;;;;;;;;;5054762;28;20029;-54
2023/02/25 14:20:43;;;;;;;1.02;0.57;;;;;;;;;;5054251;28;20112;-53
2023/02/25 14:23:18;;;;;;;4.25;0.93;;;;;;;;;;5055126;28;20122;-55
2023/02/25 14:25:53;;;;;;;1.35;0.52;;;;;;;;;;5054780;28;20083;-53
2023/02/25 14:28:43;;;;;;;0.95;0.40;;;;;;;;;;5054089;28;20057;-54
2023/02/25 14:31:14;;;;;;;4.35;0.47;;;;;;;;;;5050668;28;20040;-54
2023/02/25 14:34:04;;;;;;;0.55;0.30;;;;;;;;;;5054645;28;20025;-53
2023/02/25 14:36:36;;;;;;;4.85;2.20;;;;;;;;;;5054323;28;20543;-55
2023/02/25 14:39:08;;;;;;;5.45;1.17;;;;;;;;;;5053877;28;20029;-56
2023/02/25 14:41:40;;;;;;;3.10;0.60;;;;;;;;;;5053827;28;20069;-54
2023/02/25 14:44:10;;;;;;;4.05;0.60;;;;;;;;;;5054572;28;20325;-54
2023/02/25 14:47:02;;;;;;;3.70;0.60;;;;;;;;;;5054600;28;20390;-54
2023/02/25 14:49:55;;;;;;;1.35;0.60;;;;;;;;;;5053318;28;20052;-54
2023/02/25 14:52:39;;;;;;;2.10;0.77;;;;;;;;;;5045182;28;20037;-51
2023/02/25 14:55:28;;;;;;;1.48;0.17;;;;;;;;;;5054504;28;20028;-54
2023/02/25 14:57:55;;;;;;;1.88;0.70;;;;;;;;;;5043426;28;20060;-54
2023/02/25 15:00:29;;;;;;;2.88;0.95;;;;;;;;;;5053810;28;20463;-56
2023/02/25 15:03:13;;;;;;;1.13;0.68;;;;;;;;;;5054168;28;20025;-55